sensor_id;sensor_type;location;lat;lon;timestamp;P1;durP1;ratioP1;P2;durP2;ratioP2
81936;SDS011;71432;56.558;9.036;2023-12-04T00:01:56;18.83;;;6.53;;
81936;SDS011;71432;56.558;9.036;2023-12-04T00:04:22;12.88;;;5.50;;
81936;SDS011;71432;56.558;9.036;2023-12-04T00:06:47;14.77;;;5.57;;
81936;SDS011;71432;56.558;9.036;2023-12-04T00:09:12;16.20;;;6.00;;
81936;SDS011;71432;56.558;9.036;2023-12-04T00:11:37;15.43;;;6.43;;
81936;SDS011;71432;56.558;9.036;2023-12-04T00:14:03;13.90;;;5.68;;
81936;SDS011;71432;56.558;9.036;2023-12-04T00:16:28;13.40;;;5.18;;
81936;SDS011;71432;56.558;9.036;2023-12-04T00:18:54;11.45;;;5.93;;
81936;SDS011;71432;56.558;9.036;2023-12-04T00:21:19;12.43;;;5.20;;
81936;SDS011;71432;56.558;9.036;2023-12-04T00:23:44;12.10;;;5.33;;
81936;SDS011;71432;56.558;9.036;2023-12-04T00:26:12;11.52;;;5.32;;
81936;SDS011;71432;56.558;9.036;2023-12-04T00:28:38;10.45;;;4.68;;
81936;SDS011;71432;56.558;9.036;2023-12-04T00:31:03;11.45;;;4.65;;
81936;SDS011;71432;56.558;9.036;2023-12-04T00:33:28;12.60;;;6.30;;
81936;SDS011;71432;56.558;9.036;2023-12-04T00:35:54;12.27;;;5.30;;
81936;SDS011;71432;56.558;9.036;2023-12-04T00:38:19;12.13;;;6.03;;
81936;SDS011;71432;56.558;9.036;2023-12-04T00:40:44;11.50;;;4.37;;
81936;SDS011;71432;56.558;9.036;2023-12-04T00:43:10;12.32;;;5.43;;
81936;SDS011;71432;56.558;9.036;2023-12-04T00:45:35;12.47;;;5.80;;
81936;SDS011;71432;56.558;9.036;2023-12-04T00:48:00;10.77;;;5.13;;
81936;SDS011;71432;56.558;9.036;2023-12-04T00:50:27;8.90;;;4.10;;
81936;SDS011;71432;56.558;9.036;2023-12-04T00:52:52;8.90;;;4.53;;
81936;SDS011;71432;56.558;9.036;2023-12-04T00:55:17;10.57;;;3.70;;
81936;SDS011;71432;56.558;9.036;2023-12-04T01:00:10;12.10;;;4.22;;
81936;SDS011;71432;56.558;9.036;2023-12-04T01:02:36;8.05;;;3.85;;
81936;SDS011;71432;56.558;9.036;2023-12-04T01:05:01;9.10;;;4.20;;
81936;SDS011;71432;56.558;9.036;2023-12-04T01:07:27;8.32;;;4.25;;
81936;SDS011;71432;56.558;9.036;2023-12-04T01:09:52;9.15;;;4.22;;
81936;SDS011;71432;56.558;9.036;2023-12-04T01:12:17;8.50;;;3.85;;
81936;SDS011;71432;56.558;9.036;2023-12-04T01:14:43;8.73;;;4.03;;
81936;SDS011;71432;56.558;9.036;2023-12-04T01:17:08;8.57;;;3.73;;
81936;SDS011;71432;56.558;9.036;2023-12-04T01:19:33;6.20;;;3.27;;
81936;SDS011;71432;56.558;9.036;2023-12-04T01:21:59;7.30;;;3.33;;
81936;SDS011;71432;56.558;9.036;2023-12-04T01:24:24;8.37;;;3.40;;
81936;SDS011;71432;56.558;9.036;2023-12-04T01:26:49;8.17;;;3.97;;
81936;SDS011;71432;56.558;9.036;2023-12-04T01:29:15;7.90;;;3.73;;
81936;SDS011;71432;56.558;9.036;2023-12-04T01:31:40;7.77;;;3.80;;
81936;SDS011;71432;56.558;9.036;2023-12-04T01:34:05;8.43;;;3.30;;
81936;SDS011;71432;56.558;9.036;2023-12-04T01:36:30;7.30;;;3.10;;
81936;SDS011;71432;56.558;9.036;2023-12-04T01:38:56;6.20;;;3.37;;
81936;SDS011;71432;56.558;9.036;2023-12-04T01:41:21;7.33;;;3.43;;
81936;SDS011;71432;56.558;9.036;2023-12-04T01:43:47;6.68;;;3.28;;
81936;SDS011;71432;56.558;9.036;2023-12-04T01:46:13;8.35;;;3.10;;
81936;SDS011;71432;56.558;9.036;2023-12-04T01:48:42;7.05;;;3.13;;
81936;SDS011;71432;56.558;9.036;2023-12-04T01:51:07;7.50;;;3.72;;
81936;SDS011;71432;56.558;9.036;2023-12-04T01:53:35;8.35;;;3.35;;
81936;SDS011;71432;56.558;9.036;2023-12-04T01:56:03;5.70;;;2.22;;
81936;SDS011;71432;56.558;9.036;2023-12-04T01:58:30;6.95;;;2.47;;
81936;SDS011;71432;56.558;9.036;2023-12-04T02:00:56;5.65;;;3.30;;
81936;SDS011;71432;56.558;9.036;2023-12-04T02:03:22;5.47;;;2.47;;
81936;SDS011;71432;56.558;9.036;2023-12-04T02:05:47;5.13;;;2.22;;
81936;SDS011;71432;56.558;9.036;2023-12-04T02:08:16;5.70;;;2.40;;
81936;SDS011;71432;56.558;9.036;2023-12-04T02:10:41;7.05;;;2.92;;
81936;SDS011;71432;56.558;9.036;2023-12-04T02:13:06;5.53;;;2.63;;
81936;SDS011;71432;56.558;9.036;2023-12-04T02:15:32;7.35;;;2.47;;
81936;SDS011;71432;56.558;9.036;2023-12-04T02:17:58;7.32;;;2.90;;
81936;SDS011;71432;56.558;9.036;2023-12-04T02:20:30;7.00;;;2.58;;
81936;SDS011;71432;56.558;9.036;2023-12-04T02:22:57;6.40;;;2.30;;
81936;SDS011;71432;56.558;9.036;2023-12-04T02:25:22;5.87;;;2.60;;
81936;SDS011;71432;56.558;9.036;2023-12-04T02:27:49;6.30;;;2.95;;
81936;SDS011;71432;56.558;9.036;2023-12-04T02:30:15;7.07;;;3.75;;
81936;SDS011;71432;56.558;9.036;2023-12-04T02:32:44;5.38;;;2.45;;
81936;SDS011;71432;56.558;9.036;2023-12-04T02:35:11;6.00;;;2.55;;
81936;SDS011;71432;56.558;9.036;2023-12-04T02:37:39;5.22;;;2.47;;
81936;SDS011;71432;56.558;9.036;2023-12-04T02:42:31;4.93;;;2.28;;
81936;SDS011;71432;56.558;9.036;2023-12-04T02:44:57;4.30;;;2.20;;
81936;SDS011;71432;56.558;9.036;2023-12-04T02:47:22;4.00;;;2.03;;
81936;SDS011;71432;56.558;9.036;2023-12-04T02:49:48;4.95;;;2.38;;
81936;SDS011;71432;56.558;9.036;2023-12-04T02:52:13;4.82;;;2.10;;
81936;SDS011;71432;56.558;9.036;2023-12-04T02:54:39;4.50;;;2.63;;
81936;SDS011;71432;56.558;9.036;2023-12-04T02:57:04;4.80;;;2.10;;
81936;SDS011;71432;56.558;9.036;2023-12-04T02:59:29;6.05;;;2.60;;
81936;SDS011;71432;56.558;9.036;2023-12-04T03:01:55;6.47;;;2.40;;
81936;SDS011;71432;56.558;9.036;2023-12-04T03:04:20;6.33;;;2.33;;
81936;SDS011;71432;56.558;9.036;2023-12-04T03:06:45;3.80;;;2.08;;
81936;SDS011;71432;56.558;9.036;2023-12-04T03:09:11;5.35;;;2.30;;
81936;SDS011;71432;56.558;9.036;2023-12-04T03:11:39;4.38;;;2.60;;
81936;SDS011;71432;56.558;9.036;2023-12-04T03:14:05;6.45;;;2.03;;
81936;SDS011;71432;56.558;9.036;2023-12-04T03:16:31;3.65;;;2.13;;
81936;SDS011;71432;56.558;9.036;2023-12-04T03:18:56;5.00;;;2.55;;
81936;SDS011;71432;56.558;9.036;2023-12-04T03:21:22;5.93;;;2.40;;
81936;SDS011;71432;56.558;9.036;2023-12-04T03:23:47;4.63;;;2.67;;
81936;SDS011;71432;56.558;9.036;2023-12-04T03:26:13;3.40;;;2.10;;
81936;SDS011;71432;56.558;9.036;2023-12-04T03:28:38;2.83;;;1.90;;
81936;SDS011;71432;56.558;9.036;2023-12-04T03:31:05;5.28;;;2.33;;
81936;SDS011;71432;56.558;9.036;2023-12-04T03:33:30;4.03;;;2.25;;
81936;SDS011;71432;56.558;9.036;2023-12-04T03:35:56;4.47;;;1.93;;
81936;SDS011;71432;56.558;9.036;2023-12-04T03:38:21;4.18;;;1.95;;
81936;SDS011;71432;56.558;9.036;2023-12-04T03:40:46;3.78;;;2.10;;
81936;SDS011;71432;56.558;9.036;2023-12-04T03:43:12;4.30;;;2.03;;
81936;SDS011;71432;56.558;9.036;2023-12-04T03:45:37;3.57;;;1.77;;
81936;SDS011;71432;56.558;9.036;2023-12-04T03:48:02;2.58;;;1.52;;
81936;SDS011;71432;56.558;9.036;2023-12-04T03:50:28;3.85;;;2.08;;
81936;SDS011;71432;56.558;9.036;2023-12-04T03:52:53;4.57;;;2.07;;
81936;SDS011;71432;56.558;9.036;2023-12-04T03:55:18;3.07;;;1.97;;
81936;SDS011;71432;56.558;9.036;2023-12-04T03:57:44;3.72;;;1.83;;
81936;SDS011;71432;56.558;9.036;2023-12-04T04:00:10;3.72;;;1.88;;
81936;SDS011;71432;56.558;9.036;2023-12-04T04:02:36;3.67;;;2.38;;
81936;SDS011;71432;56.558;9.036;2023-12-04T04:05:01;3.63;;;1.77;;
81936;SDS011;71432;56.558;9.036;2023-12-04T04:07:27;3.60;;;1.67;;
81936;SDS011;71432;56.558;9.036;2023-12-04T04:09:52;2.70;;;1.50;;
81936;SDS011;71432;56.558;9.036;2023-12-04T04:12:17;3.95;;;2.28;;
81936;SDS011;71432;56.558;9.036;2023-12-04T04:14:43;3.60;;;1.80;;
81936;SDS011;71432;56.558;9.036;2023-12-04T04:17:08;3.57;;;1.80;;
81936;SDS011;71432;56.558;9.036;2023-12-04T04:19:33;3.37;;;2.10;;
81936;SDS011;71432;56.558;9.036;2023-12-04T04:21:58;3.47;;;1.73;;
81936;SDS011;71432;56.558;9.036;2023-12-04T04:24:24;3.97;;;2.10;;
81936;SDS011;71432;56.558;9.036;2023-12-04T04:26:49;4.65;;;2.42;;
81936;SDS011;71432;56.558;9.036;2023-12-04T04:29:14;2.87;;;1.70;;
81936;SDS011;71432;56.558;9.036;2023-12-04T04:31:40;2.90;;;1.67;;
81936;SDS011;71432;56.558;9.036;2023-12-04T04:34:05;3.78;;;1.60;;
81936;SDS011;71432;56.558;9.036;2023-12-04T04:36:30;4.17;;;2.00;;
81936;SDS011;71432;56.558;9.036;2023-12-04T04:38:56;2.80;;;1.63;;
81936;SDS011;71432;56.558;9.036;2023-12-04T04:41:21;3.07;;;1.70;;
81936;SDS011;71432;56.558;9.036;2023-12-04T04:43:46;3.13;;;2.05;;
81936;SDS011;71432;56.558;9.036;2023-12-04T04:46:12;3.53;;;1.90;;
81936;SDS011;71432;56.558;9.036;2023-12-04T04:48:37;3.78;;;1.75;;
81936;SDS011;71432;56.558;9.036;2023-12-04T04:51:03;2.42;;;1.40;;
81936;SDS011;71432;56.558;9.036;2023-12-04T04:53:28;2.78;;;1.38;;
81936;SDS011;71432;56.558;9.036;2023-12-04T04:55:54;2.87;;;1.53;;
81936;SDS011;71432;56.558;9.036;2023-12-04T04:58:19;2.30;;;1.25;;
81936;SDS011;71432;56.558;9.036;2023-12-04T05:00:45;2.37;;;1.60;;
81936;SDS011;71432;56.558;9.036;2023-12-04T05:03:11;2.97;;;1.70;;
81936;SDS011;71432;56.558;9.036;2023-12-04T05:05:37;2.88;;;1.65;;
81936;SDS011;71432;56.558;9.036;2023-12-04T05:08:02;2.63;;;1.42;;
81936;SDS011;71432;56.558;9.036;2023-12-04T05:10:28;2.83;;;1.63;;
81936;SDS011;71432;56.558;9.036;2023-12-04T05:12:53;2.20;;;1.23;;
81936;SDS011;71432;56.558;9.036;2023-12-04T05:15:18;3.10;;;1.90;;
81936;SDS011;71432;56.558;9.036;2023-12-04T05:17:44;2.78;;;1.48;;
81936;SDS011;71432;56.558;9.036;2023-12-04T05:20:09;4.17;;;1.30;;
81936;SDS011;71432;56.558;9.036;2023-12-04T05:22:35;2.55;;;1.40;;
81936;SDS011;71432;56.558;9.036;2023-12-04T05:25:00;2.35;;;1.35;;
81936;SDS011;71432;56.558;9.036;2023-12-04T05:27:26;5.85;;;1.83;;
81936;SDS011;71432;56.558;9.036;2023-12-04T05:29:51;7.30;;;1.58;;
81936;SDS011;71432;56.558;9.036;2023-12-04T05:32:17;2.78;;;1.35;;
81936;SDS011;71432;56.558;9.036;2023-12-04T05:34:42;3.67;;;1.70;;
81936;SDS011;71432;56.558;9.036;2023-12-04T05:37:07;3.67;;;1.60;;
81936;SDS011;71432;56.558;9.036;2023-12-04T05:39:33;2.20;;;1.40;;
81936;SDS011;71432;56.558;9.036;2023-12-04T05:41:58;4.63;;;1.23;;
81936;SDS011;71432;56.558;9.036;2023-12-04T05:44:24;2.90;;;1.23;;
81936;SDS011;71432;56.558;9.036;2023-12-04T05:46:49;4.65;;;1.67;;
81936;SDS011;71432;56.558;9.036;2023-12-04T05:49:14;3.17;;;1.55;;
81936;SDS011;71432;56.558;9.036;2023-12-04T05:51:40;3.27;;;1.50;;
81936;SDS011;71432;56.558;9.036;2023-12-04T05:54:05;6.38;;;1.63;;
81936;SDS011;71432;56.558;9.036;2023-12-04T05:56:30;4.32;;;1.83;;
81936;SDS011;71432;56.558;9.036;2023-12-04T05:58:56;6.50;;;1.48;;
81936;SDS011;71432;56.558;9.036;2023-12-04T06:01:21;2.67;;;1.23;;
81936;SDS011;71432;56.558;9.036;2023-12-04T06:03:47;3.67;;;1.60;;
81936;SDS011;71432;56.558;9.036;2023-12-04T06:06:12;4.40;;;1.40;;
81936;SDS011;71432;56.558;9.036;2023-12-04T06:08:37;4.88;;;2.03;;
81936;SDS011;71432;56.558;9.036;2023-12-04T06:11:03;5.00;;;1.70;;
81936;SDS011;71432;56.558;9.036;2023-12-04T06:13:28;7.72;;;1.70;;
81936;SDS011;71432;56.558;9.036;2023-12-04T06:15:54;3.67;;;2.00;;
81936;SDS011;71432;56.558;9.036;2023-12-04T06:18:19;7.03;;;1.50;;
81936;SDS011;71432;56.558;9.036;2023-12-04T06:23:11;3.43;;;1.13;;
81936;SDS011;71432;56.558;9.036;2023-12-04T06:25:37;3.15;;;1.75;;
81936;SDS011;71432;56.558;9.036;2023-12-04T06:28:03;4.78;;;1.50;;
81936;SDS011;71432;56.558;9.036;2023-12-04T06:30:29;7.88;;;2.58;;
81936;SDS011;71432;56.558;9.036;2023-12-04T06:32:55;12.18;;;3.33;;
81936;SDS011;71432;56.558;9.036;2023-12-04T06:35:20;17.05;;;4.82;;
81936;SDS011;71432;56.558;9.036;2023-12-04T06:37:47;17.98;;;5.50;;
81936;SDS011;71432;56.558;9.036;2023-12-04T06:40:14;20.50;;;4.80;;
81936;SDS011;71432;56.558;9.036;2023-12-04T06:42:40;18.90;;;5.80;;
81936;SDS011;71432;56.558;9.036;2023-12-04T06:45:06;27.33;;;6.88;;
81936;SDS011;71432;56.558;9.036;2023-12-04T06:47:32;18.20;;;5.25;;
81936;SDS011;71432;56.558;9.036;2023-12-04T06:49:59;14.63;;;5.28;;
81936;SDS011;71432;56.558;9.036;2023-12-04T06:52:24;22.25;;;5.47;;
81936;SDS011;71432;56.558;9.036;2023-12-04T06:54:50;17.17;;;5.27;;
81936;SDS011;71432;56.558;9.036;2023-12-04T06:57:15;21.80;;;6.03;;
81936;SDS011;71432;56.558;9.036;2023-12-04T06:59:43;21.37;;;5.27;;
81936;SDS011;71432;56.558;9.036;2023-12-04T07:02:08;14.30;;;4.55;;
81936;SDS011;71432;56.558;9.036;2023-12-04T07:04:34;16.10;;;6.68;;
81936;SDS011;71432;56.558;9.036;2023-12-04T07:06:59;15.55;;;7.22;;
81936;SDS011;71432;56.558;9.036;2023-12-04T07:09:30;14.48;;;6.65;;
81936;SDS011;71432;56.558;9.036;2023-12-04T07:12:01;15.57;;;7.25;;
81936;SDS011;71432;56.558;9.036;2023-12-04T07:14:27;16.27;;;4.50;;
81936;SDS011;71432;56.558;9.036;2023-12-04T07:16:53;11.43;;;4.63;;
81936;SDS011;71432;56.558;9.036;2023-12-04T07:19:18;12.50;;;4.15;;
81936;SDS011;71432;56.558;9.036;2023-12-04T07:21:43;9.03;;;4.27;;
81936;SDS011;71432;56.558;9.036;2023-12-04T07:24:09;9.90;;;3.83;;
81936;SDS011;71432;56.558;9.036;2023-12-04T07:26:34;7.13;;;3.80;;
81936;SDS011;71432;56.558;9.036;2023-12-04T07:29:01;12.13;;;3.67;;
81936;SDS011;71432;56.558;9.036;2023-12-04T07:33:53;5.70;;;3.27;;
81936;SDS011;71432;56.558;9.036;2023-12-04T07:36:18;7.65;;;3.10;;
81936;SDS011;71432;56.558;9.036;2023-12-04T07:38:44;8.10;;;3.38;;
81936;SDS011;71432;56.558;9.036;2023-12-04T07:41:10;7.80;;;3.05;;
81936;SDS011;71432;56.558;9.036;2023-12-04T07:43:35;5.55;;;2.78;;
81936;SDS011;71432;56.558;9.036;2023-12-04T07:46:01;5.30;;;2.67;;
81936;SDS011;71432;56.558;9.036;2023-12-04T07:48:26;6.97;;;3.25;;
81936;SDS011;71432;56.558;9.036;2023-12-04T07:50:51;8.05;;;3.20;;
81936;SDS011;71432;56.558;9.036;2023-12-04T07:53:17;6.87;;;2.60;;
81936;SDS011;71432;56.558;9.036;2023-12-04T07:55:42;5.07;;;2.25;;
81936;SDS011;71432;56.558;9.036;2023-12-04T07:58:08;5.63;;;2.85;;
81936;SDS011;71432;56.558;9.036;2023-12-04T08:00:34;7.03;;;2.55;;
81936;SDS011;71432;56.558;9.036;2023-12-04T08:02:59;8.85;;;2.58;;
81936;SDS011;71432;56.558;9.036;2023-12-04T08:05:25;7.63;;;2.90;;
81936;SDS011;71432;56.558;9.036;2023-12-04T08:07:52;4.65;;;2.25;;
81936;SDS011;71432;56.558;9.036;2023-12-04T08:10:17;7.07;;;2.33;;
81936;SDS011;71432;56.558;9.036;2023-12-04T08:12:44;4.00;;;1.77;;
81936;SDS011;71432;56.558;9.036;2023-12-04T08:15:11;5.90;;;2.63;;
81936;SDS011;71432;56.558;9.036;2023-12-04T08:17:36;6.13;;;2.20;;
81936;SDS011;71432;56.558;9.036;2023-12-04T08:20:02;5.13;;;2.40;;
81936;SDS011;71432;56.558;9.036;2023-12-04T08:22:29;5.18;;;2.22;;
81936;SDS011;71432;56.558;9.036;2023-12-04T08:24:54;5.35;;;2.58;;
81936;SDS011;71432;56.558;9.036;2023-12-04T08:27:19;5.07;;;2.80;;
81936;SDS011;71432;56.558;9.036;2023-12-04T08:29:45;6.83;;;2.43;;
81936;SDS011;71432;56.558;9.036;2023-12-04T08:32:10;3.78;;;1.95;;
81936;SDS011;71432;56.558;9.036;2023-12-04T08:34:36;4.63;;;2.58;;
81936;SDS011;71432;56.558;9.036;2023-12-04T08:37:01;5.05;;;2.60;;
81936;SDS011;71432;56.558;9.036;2023-12-04T08:39:27;5.22;;;2.53;;
81936;SDS011;71432;56.558;9.036;2023-12-04T08:41:52;5.23;;;2.10;;
81936;SDS011;71432;56.558;9.036;2023-12-04T08:44:17;3.57;;;2.00;;
81936;SDS011;71432;56.558;9.036;2023-12-04T08:46:43;3.30;;;2.13;;
81936;SDS011;71432;56.558;9.036;2023-12-04T08:49:09;5.30;;;1.95;;
81936;SDS011;71432;56.558;9.036;2023-12-04T08:51:34;3.03;;;1.90;;
81936;SDS011;71432;56.558;9.036;2023-12-04T08:54:00;3.63;;;2.00;;
81936;SDS011;71432;56.558;9.036;2023-12-04T08:56:25;4.95;;;2.47;;
81936;SDS011;71432;56.558;9.036;2023-12-04T08:58:50;5.07;;;2.27;;
81936;SDS011;71432;56.558;9.036;2023-12-04T09:01:16;3.55;;;2.00;;
81936;SDS011;71432;56.558;9.036;2023-12-04T09:03:41;3.10;;;2.03;;
81936;SDS011;71432;56.558;9.036;2023-12-04T09:06:06;4.07;;;1.70;;
81936;SDS011;71432;56.558;9.036;2023-12-04T09:08:32;4.13;;;1.95;;
81936;SDS011;71432;56.558;9.036;2023-12-04T09:10:57;4.65;;;2.00;;
81936;SDS011;71432;56.558;9.036;2023-12-04T09:13:23;3.03;;;1.70;;
81936;SDS011;71432;56.558;9.036;2023-12-04T09:15:48;4.20;;;2.05;;
81936;SDS011;71432;56.558;9.036;2023-12-04T09:18:14;3.08;;;1.50;;
81936;SDS011;71432;56.558;9.036;2023-12-04T09:20:40;2.63;;;1.77;;
81936;SDS011;71432;56.558;9.036;2023-12-04T09:23:06;4.05;;;1.80;;
81936;SDS011;71432;56.558;9.036;2023-12-04T09:25:31;2.92;;;1.77;;
81936;SDS011;71432;56.558;9.036;2023-12-04T09:27:57;4.57;;;2.20;;
81936;SDS011;71432;56.558;9.036;2023-12-04T09:30:22;4.43;;;2.00;;
81936;SDS011;71432;56.558;9.036;2023-12-04T09:32:47;3.25;;;2.00;;
81936;SDS011;71432;56.558;9.036;2023-12-04T09:35:13;4.63;;;2.00;;
81936;SDS011;71432;56.558;9.036;2023-12-04T09:37:40;4.05;;;1.70;;
81936;SDS011;71432;56.558;9.036;2023-12-04T09:40:05;4.78;;;1.77;;
81936;SDS011;71432;56.558;9.036;2023-12-04T09:42:33;4.10;;;1.98;;
81936;SDS011;71432;56.558;9.036;2023-12-04T09:44:59;2.75;;;1.80;;
81936;SDS011;71432;56.558;9.036;2023-12-04T09:47:25;4.35;;;1.67;;
81936;SDS011;71432;56.558;9.036;2023-12-04T09:49:51;3.33;;;1.80;;
81936;SDS011;71432;56.558;9.036;2023-12-04T09:52:18;2.83;;;1.50;;
81936;SDS011;71432;56.558;9.036;2023-12-04T09:54:44;4.30;;;2.08;;
81936;SDS011;71432;56.558;9.036;2023-12-04T09:57:10;2.65;;;1.42;;
81936;SDS011;71432;56.558;9.036;2023-12-04T09:59:37;2.92;;;1.60;;
81936;SDS011;71432;56.558;9.036;2023-12-04T10:02:04;2.70;;;1.38;;
81936;SDS011;71432;56.558;9.036;2023-12-04T10:04:30;3.38;;;1.70;;
81936;SDS011;71432;56.558;9.036;2023-12-04T10:06:57;3.13;;;1.30;;
81936;SDS011;71432;56.558;9.036;2023-12-04T10:09:22;3.05;;;1.50;;
81936;SDS011;71432;56.558;9.036;2023-12-04T10:11:48;2.78;;;1.58;;
81936;SDS011;71432;56.558;9.036;2023-12-04T10:14:16;2.55;;;1.60;;
81936;SDS011;71432;56.558;9.036;2023-12-04T10:16:43;3.53;;;1.63;;
81936;SDS011;71432;56.558;9.036;2023-12-04T10:19:15;2.88;;;1.55;;
81936;SDS011;71432;56.558;9.036;2023-12-04T10:21:47;3.60;;;1.60;;
81936;SDS011;71432;56.558;9.036;2023-12-04T10:24:30;3.03;;;1.40;;
81936;SDS011;71432;56.558;9.036;2023-12-04T10:27:03;2.70;;;1.38;;
81936;SDS011;71432;56.558;9.036;2023-12-04T10:29:47;3.30;;;1.80;;
81936;SDS011;71432;56.558;9.036;2023-12-04T10:32:13;3.00;;;1.55;;
81936;SDS011;71432;56.558;9.036;2023-12-04T10:34:43;2.50;;;1.25;;
81936;SDS011;71432;56.558;9.036;2023-12-04T10:37:09;2.05;;;1.23;;
81936;SDS011;71432;56.558;9.036;2023-12-04T10:42:34;3.90;;;1.60;;
81936;SDS011;71432;56.558;9.036;2023-12-04T10:44:59;4.00;;;1.50;;
81936;SDS011;71432;56.558;9.036;2023-12-04T10:47:26;3.45;;;1.83;;
81936;SDS011;71432;56.558;9.036;2023-12-04T10:49:54;2.90;;;1.60;;
81936;SDS011;71432;56.558;9.036;2023-12-04T10:52:20;3.88;;;1.70;;
81936;SDS011;71432;56.558;9.036;2023-12-04T10:54:46;3.88;;;1.55;;
81936;SDS011;71432;56.558;9.036;2023-12-04T10:57:16;3.67;;;1.90;;
81936;SDS011;71432;56.558;9.036;2023-12-04T10:59:51;3.30;;;1.73;;
81936;SDS011;71432;56.558;9.036;2023-12-04T11:02:21;4.45;;;1.88;;
81936;SDS011;71432;56.558;9.036;2023-12-04T11:04:51;2.47;;;1.35;;
81936;SDS011;71432;56.558;9.036;2023-12-04T11:07:25;2.35;;;1.60;;
81936;SDS011;71432;56.558;9.036;2023-12-04T11:09:52;3.58;;;2.10;;
81936;SDS011;71432;56.558;9.036;2023-12-04T11:12:20;3.63;;;1.77;;
81936;SDS011;71432;56.558;9.036;2023-12-04T11:14:50;2.47;;;1.42;;
81936;SDS011;71432;56.558;9.036;2023-12-04T11:17:21;2.63;;;1.52;;
81936;SDS011;71432;56.558;9.036;2023-12-04T11:19:55;2.25;;;1.52;;
81936;SDS011;71432;56.558;9.036;2023-12-04T11:22:27;3.45;;;1.70;;
81936;SDS011;71432;56.558;9.036;2023-12-04T11:24:53;1.77;;;0.80;;
81936;SDS011;71432;56.558;9.036;2023-12-04T11:27:20;2.40;;;1.30;;
81936;SDS011;71432;56.558;9.036;2023-12-04T11:29:47;3.17;;;1.38;;
81936;SDS011;71432;56.558;9.036;2023-12-04T11:32:14;1.77;;;1.35;;
81936;SDS011;71432;56.558;9.036;2023-12-04T11:35:17;2.42;;;1.40;;
81936;SDS011;71432;56.558;9.036;2023-12-04T11:37:37;4.15;;;1.80;;
81936;SDS011;71432;56.558;9.036;2023-12-04T11:40:03;2.03;;;1.13;;
81936;SDS011;71432;56.558;9.036;2023-12-04T11:42:30;3.00;;;1.50;;
81936;SDS011;71432;56.558;9.036;2023-12-04T11:44:56;4.05;;;1.17;;
81936;SDS011;71432;56.558;9.036;2023-12-04T11:47:23;2.58;;;1.45;;
81936;SDS011;71432;56.558;9.036;2023-12-04T11:49:48;3.53;;;1.60;;
81936;SDS011;71432;56.558;9.036;2023-12-04T11:52:14;3.23;;;1.50;;
81936;SDS011;71432;56.558;9.036;2023-12-04T11:57:23;2.55;;;1.42;;
81936;SDS011;71432;56.558;9.036;2023-12-04T12:00:13;2.60;;;1.20;;
81936;SDS011;71432;56.558;9.036;2023-12-04T12:05:26;2.45;;;1.15;;
81936;SDS011;71432;56.558;9.036;2023-12-04T12:07:52;1.95;;;1.02;;
81936;SDS011;71432;56.558;9.036;2023-12-04T12:10:17;3.30;;;1.15;;
81936;SDS011;71432;56.558;9.036;2023-12-04T12:12:43;1.83;;;1.10;;
81936;SDS011;71432;56.558;9.036;2023-12-04T12:15:12;2.70;;;1.45;;
81936;SDS011;71432;56.558;9.036;2023-12-04T12:17:38;2.10;;;1.50;;
81936;SDS011;71432;56.558;9.036;2023-12-04T12:20:05;2.53;;;1.48;;
81936;SDS011;71432;56.558;9.036;2023-12-04T12:22:35;2.83;;;1.20;;
81936;SDS011;71432;56.558;9.036;2023-12-04T12:25:04;3.25;;;1.30;;
81936;SDS011;71432;56.558;9.036;2023-12-04T12:27:31;2.90;;;1.20;;
81936;SDS011;71432;56.558;9.036;2023-12-04T12:29:57;3.03;;;1.80;;
81936;SDS011;71432;56.558;9.036;2023-12-04T12:32:22;2.75;;;1.42;;
81936;SDS011;71432;56.558;9.036;2023-12-04T12:34:48;2.88;;;1.33;;
81936;SDS011;71432;56.558;9.036;2023-12-04T12:37:13;1.35;;;1.05;;
81936;SDS011;71432;56.558;9.036;2023-12-04T12:39:40;3.28;;;1.40;;
81936;SDS011;71432;56.558;9.036;2023-12-04T12:42:05;2.88;;;2.03;;
81936;SDS011;71432;56.558;9.036;2023-12-04T12:44:40;2.72;;;1.55;;
81936;SDS011;71432;56.558;9.036;2023-12-04T12:47:07;3.83;;;1.60;;
81936;SDS011;71432;56.558;9.036;2023-12-04T12:49:33;2.30;;;1.40;;
81936;SDS011;71432;56.558;9.036;2023-12-04T12:52:00;2.83;;;1.50;;
81936;SDS011;71432;56.558;9.036;2023-12-04T12:54:26;3.28;;;1.65;;
81936;SDS011;71432;56.558;9.036;2023-12-04T12:56:51;3.57;;;1.30;;
81936;SDS011;71432;56.558;9.036;2023-12-04T12:59:17;2.20;;;1.30;;
81936;SDS011;71432;56.558;9.036;2023-12-04T13:01:45;2.53;;;1.10;;
81936;SDS011;71432;56.558;9.036;2023-12-04T13:04:13;2.67;;;1.52;;
81936;SDS011;71432;56.558;9.036;2023-12-04T13:06:40;2.08;;;1.35;;
81936;SDS011;71432;56.558;9.036;2023-12-04T13:09:05;2.22;;;1.25;;
81936;SDS011;71432;56.558;9.036;2023-12-04T13:11:31;3.17;;;1.65;;
81936;SDS011;71432;56.558;9.036;2023-12-04T13:13:57;2.90;;;1.40;;
81936;SDS011;71432;56.558;9.036;2023-12-04T13:16:22;2.10;;;1.10;;
81936;SDS011;71432;56.558;9.036;2023-12-04T13:18:48;2.40;;;1.20;;
81936;SDS011;71432;56.558;9.036;2023-12-04T13:21:13;2.97;;;1.50;;
81936;SDS011;71432;56.558;9.036;2023-12-04T13:23:38;2.20;;;1.40;;
81936;SDS011;71432;56.558;9.036;2023-12-04T13:26:04;2.75;;;1.42;;
81936;SDS011;71432;56.558;9.036;2023-12-04T13:28:30;3.45;;;1.20;;
81936;SDS011;71432;56.558;9.036;2023-12-04T13:30:55;1.60;;;0.93;;
81936;SDS011;71432;56.558;9.036;2023-12-04T13:33:20;2.20;;;1.50;;
81936;SDS011;71432;56.558;9.036;2023-12-04T13:35:46;1.77;;;1.50;;
81936;SDS011;71432;56.558;9.036;2023-12-04T13:38:11;2.20;;;1.17;;
81936;SDS011;71432;56.558;9.036;2023-12-04T13:40:38;1.73;;;1.15;;
81936;SDS011;71432;56.558;9.036;2023-12-04T13:43:04;1.90;;;1.13;;
81936;SDS011;71432;56.558;9.036;2023-12-04T13:45:47;3.90;;;1.88;;
81936;SDS011;71432;56.558;9.036;2023-12-04T13:48:13;3.05;;;1.73;;
81936;SDS011;71432;56.558;9.036;2023-12-04T13:50:40;1.85;;;1.17;;
81936;SDS011;71432;56.558;9.036;2023-12-04T13:53:05;1.75;;;1.33;;
81936;SDS011;71432;56.558;9.036;2023-12-04T13:55:32;2.10;;;1.10;;
81936;SDS011;71432;56.558;9.036;2023-12-04T13:58:18;1.90;;;1.10;;
81936;SDS011;71432;56.558;9.036;2023-12-04T14:01:03;3.47;;;1.27;;
81936;SDS011;71432;56.558;9.036;2023-12-04T14:03:38;1.73;;;0.93;;
81936;SDS011;71432;56.558;9.036;2023-12-04T14:06:13;3.53;;;1.00;;
81936;SDS011;71432;56.558;9.036;2023-12-04T14:08:40;3.42;;;1.50;;
81936;SDS011;71432;56.558;9.036;2023-12-04T14:11:06;2.42;;;1.38;;
81936;SDS011;71432;56.558;9.036;2023-12-04T14:13:32;4.10;;;1.73;;
81936;SDS011;71432;56.558;9.036;2023-12-04T14:15:58;5.20;;;1.70;;
81936;SDS011;71432;56.558;9.036;2023-12-04T14:18:23;3.53;;;1.43;;
81936;SDS011;71432;56.558;9.036;2023-12-04T14:20:49;3.05;;;1.13;;
81936;SDS011;71432;56.558;9.036;2023-12-04T14:23:14;3.72;;;1.25;;
81936;SDS011;71432;56.558;9.036;2023-12-04T14:25:40;2.85;;;1.48;;
81936;SDS011;71432;56.558;9.036;2023-12-04T14:28:05;5.10;;;1.17;;
81936;SDS011;71432;56.558;9.036;2023-12-04T14:30:31;3.80;;;1.02;;
81936;SDS011;71432;56.558;9.036;2023-12-04T14:32:57;4.07;;;1.80;;
81936;SDS011;71432;56.558;9.036;2023-12-04T14:35:22;4.68;;;1.20;;
81936;SDS011;71432;56.558;9.036;2023-12-04T14:37:48;3.40;;;1.48;;
81936;SDS011;71432;56.558;9.036;2023-12-04T14:40:13;3.00;;;2.00;;
81936;SDS011;71432;56.558;9.036;2023-12-04T14:45:05;4.40;;;1.88;;
81936;SDS011;71432;56.558;9.036;2023-12-04T14:47:31;3.42;;;1.80;;
81936;SDS011;71432;56.558;9.036;2023-12-04T14:49:57;5.80;;;1.80;;
81936;SDS011;71432;56.558;9.036;2023-12-04T14:52:22;5.20;;;1.90;;
81936;SDS011;71432;56.558;9.036;2023-12-04T14:54:48;9.95;;;1.90;;
81936;SDS011;71432;56.558;9.036;2023-12-04T14:57:28;4.80;;;1.80;;
81936;SDS011;71432;56.558;9.036;2023-12-04T15:00:08;7.43;;;2.17;;
81936;SDS011;71432;56.558;9.036;2023-12-04T15:02:34;6.65;;;1.70;;